createdAt,value
2023-03-29T00:02:33.598Z,99.90
2023-03-29T00:07:35.895Z,99.90
2023-03-29T00:12:39.591Z,99.90
2023-03-29T00:17:41.361Z,99.90
2023-03-29T00:22:43.883Z,99.90
2023-03-29T00:27:45.993Z,99.90
2023-03-29T00:32:47.823Z,99.90
2023-03-29T00:37:52.954Z,99.90
2023-03-29T00:42:56.921Z,99.90
2023-03-29T00:48:03.097Z,99.90
2023-03-29T00:53:15.709Z,99.90
2023-03-29T00:58:22.840Z,99.90
2023-03-29T01:03:29.350Z,99.90
2023-03-29T01:08:37.505Z,99.90
2023-03-29T01:13:51.007Z,99.90
2023-03-29T01:18:52.894Z,99.90
2023-03-29T01:24:19.377Z,96.20
2023-03-29T01:29:42.129Z,94.20
2023-03-29T01:34:53.018Z,93.00
2023-03-29T01:39:54.882Z,93.20
2023-03-29T01:45:21.793Z,93.10
2023-03-29T01:50:38.626Z,93.80
2023-03-29T01:55:45.662Z,95.20
2023-03-29T02:00:49.281Z,97.90
2023-03-29T02:05:51.984Z,99.30
2023-03-29T02:10:54.536Z,99.90
2023-03-29T02:15:56.730Z,99.90
2023-03-29T02:20:59.084Z,98.20
2023-03-29T02:26:03.369Z,95.40
2023-03-29T02:31:24.927Z,92.40
2023-03-29T02:36:32.294Z,90.50
2023-03-29T02:41:36.214Z,90.40
2023-03-29T02:46:38.407Z,89.60
2023-03-29T02:51:40.483Z,90.40
2023-03-29T02:56:43.464Z,91.70
2023-03-29T03:01:45.587Z,93.00
2023-03-29T03:06:47.920Z,97.20
2023-03-29T03:11:49.928Z,99.60
2023-03-29T03:16:52.873Z,99.90
2023-03-29T03:21:54.658Z,99.90
2023-03-29T03:26:56.763Z,99.90
2023-03-29T03:31:58.530Z,99.90
2023-03-29T03:37:01.789Z,98.70
2023-03-29T03:42:07.811Z,97.40
2023-03-29T03:47:10.061Z,97.90
2023-03-29T03:52:12.803Z,98.50
2023-03-29T03:57:14.549Z,97.90
2023-03-29T04:02:16.454Z,98.20
2023-03-29T04:07:18.702Z,97.60
2023-03-29T04:12:20.739Z,95.10
2023-03-29T04:17:22.617Z,93.90
2023-03-29T04:22:27.630Z,93.80
2023-03-29T04:27:29.471Z,94.70
2023-03-29T04:32:31.341Z,94.70
2023-03-29T04:37:33.700Z,94.10
2023-03-29T04:42:36.215Z,94.90
2023-03-29T04:47:39.869Z,94.10
2023-03-29T04:52:42.161Z,93.80
2023-03-29T04:57:46.641Z,93.50
2023-03-29T05:02:48.388Z,94.40
2023-03-29T05:07:50.868Z,94.20
2023-03-29T05:12:54.132Z,94.70
2023-03-29T05:17:56.239Z,94.10
2023-03-29T05:22:58.267Z,93.90
2023-03-29T05:28:00.260Z,92.10
2023-03-29T05:33:02.677Z,91.80
2023-03-29T05:38:05.285Z,92.00
2023-03-29T05:43:07.435Z,91.90
2023-03-29T05:48:09.931Z,91.40
2023-03-29T05:53:12.440Z,90.60
2023-03-29T05:58:14.544Z,89.40
2023-03-29T06:03:21.528Z,91.20
2023-03-29T06:08:23.881Z,90.90
2023-03-29T06:13:26.247Z,92.20
2023-03-29T06:18:28.184Z,92.20
2023-03-29T06:23:32.127Z,90.40
2023-03-29T06:28:34.064Z,87.10
2023-03-29T06:33:37.753Z,84.80
2023-03-29T06:38:39.839Z,84.50
2023-03-29T06:43:41.893Z,77.10
2023-03-29T06:48:43.801Z,76.80
2023-03-29T06:53:46.458Z,77.60
2023-03-29T06:58:48.541Z,78.00
2023-03-29T07:03:50.726Z,80.10
2023-03-29T07:08:53.403Z,88.10
2023-03-29T07:13:55.471Z,99.90
2023-03-29T07:18:57.462Z,99.90
2023-03-29T07:23:59.305Z,90.50
2023-03-29T07:29:01.444Z,81.70
2023-03-29T07:34:06.632Z,87.00
2023-03-29T07:39:13.095Z,82.90
2023-03-29T07:44:14.827Z,85.70
2023-03-29T07:49:17.326Z,73.00
2023-03-29T07:54:19.112Z,79.50
2023-03-29T07:59:20.884Z,78.50
2023-03-29T08:04:23.042Z,82.30
2023-03-29T08:09:25.959Z,80.90
2023-03-29T08:14:28.763Z,79.60
2023-03-29T08:19:31.564Z,81.60
2023-03-29T08:24:33.326Z,78.70
2023-03-29T08:29:35.257Z,58.40
2023-03-29T08:34:37.224Z,53.90
2023-03-29T08:39:39.068Z,56.40
2023-03-29T08:45:03.302Z,62.30
2023-03-29T08:50:06.774Z,65.40
2023-03-29T08:55:22.153Z,64.90
2023-03-29T09:00:40.137Z,59.50
2023-03-29T09:05:47.480Z,62.40
2023-03-29T09:11:12.930Z,67.30
2023-03-29T09:16:39.508Z,68.90
2023-03-29T09:22:00.386Z,73.10
2023-03-29T09:27:15.280Z,71.40
2023-03-29T09:32:29.895Z,70.10
2023-03-29T09:37:39.418Z,68.30
2023-03-29T09:42:42.205Z,69.10
2023-03-29T09:47:53.160Z,69.20
2023-03-29T09:52:55.389Z,62.30
2023-03-29T09:58:02.720Z,64.30
2023-03-29T10:03:04.640Z,65.80
2023-03-29T10:08:29.460Z,68.50
2023-03-29T10:13:33.330Z,62.60
2023-03-29T10:18:40.776Z,60.30
2023-03-29T10:23:44.045Z,64.20
2023-03-29T10:28:46.063Z,67.20
2023-03-29T10:33:54.571Z,67.90
2023-03-29T10:39:05.057Z,67.20
2023-03-29T10:44:24.075Z,64.50
2023-03-29T10:49:27.079Z,64.90
2023-03-29T10:54:28.925Z,65.90
2023-03-29T10:59:53.373Z,64.30
2023-03-29T11:05:18.421Z,63.70
2023-03-29T11:10:20.181Z,61.60
2023-03-29T11:15:48.341Z,58.90
2023-03-29T11:21:14.259Z,62.00
2023-03-29T11:26:24.529Z,63.70
2023-03-29T11:31:35.854Z,68.30
2023-03-29T11:36:57.170Z,67.60
2023-03-29T11:42:09.413Z,63.20
2023-03-29T11:47:37.532Z,62.20
2023-03-29T11:53:08.776Z,61.20
2023-03-29T11:58:18.746Z,59.90
2023-03-29T12:03:32.933Z,59.80
2023-03-29T12:08:44.771Z,58.80
2023-03-29T12:14:05.317Z,60.10
2023-03-29T12:19:19.794Z,60.30
2023-03-29T12:24:22.242Z,59.90
2023-03-29T12:29:26.737Z,60.30
2023-03-29T12:34:58.822Z,57.80
2023-03-29T12:40:14.632Z,57.20
2023-03-29T12:45:28.552Z,58.00
2023-03-29T12:50:38.080Z,60.00
2023-03-29T12:55:42.990Z,60.30
2023-03-29T13:00:48.027Z,60.30
2023-03-29T13:06:01.179Z,61.30
2023-03-29T13:11:04.923Z,61.10
2023-03-29T13:16:16.673Z,60.90
2023-03-29T13:21:43.084Z,60.30
2023-03-29T13:26:47.595Z,62.20
2023-03-29T13:32:07.985Z,62.80
2023-03-29T13:37:40.972Z,63.10
2023-03-29T13:42:43.084Z,64.30
2023-03-29T13:47:58.778Z,66.80
2023-03-29T13:53:28.241Z,65.40
2023-03-29T13:58:48.897Z,67.30
2023-03-29T14:03:52.754Z,66.70
2023-03-29T14:08:55.517Z,61.80
2023-03-29T14:14:02.826Z,61.80
2023-03-29T14:19:18.254Z,64.40
2023-03-29T14:24:27.075Z,61.50
2023-03-29T14:29:33.184Z,61.60
2023-03-29T14:34:35.051Z,64.00
2023-03-29T14:39:37.578Z,63.60
2023-03-29T14:44:39.375Z,61.10
2023-03-29T14:49:41.195Z,63.50
2023-03-29T14:54:46.921Z,63.10
2023-03-29T15:00:00.566Z,62.30
2023-03-29T15:05:05.153Z,62.50
2023-03-29T15:10:08.286Z,61.10
2023-03-29T15:15:13.127Z,63.60
2023-03-29T15:20:36.714Z,64.80
2023-03-29T15:25:49.063Z,66.10
2023-03-29T15:31:06.833Z,65.00
2023-03-29T15:36:12.072Z,66.40
2023-03-29T15:41:14.901Z,66.10
2023-03-29T15:46:16.715Z,65.70
2023-03-29T15:51:18.633Z,66.50
2023-03-29T15:56:22.905Z,67.10
2023-03-29T16:01:34.049Z,68.80
2023-03-29T16:06:36.185Z,70.10
2023-03-29T16:11:39.140Z,72.50
2023-03-29T16:16:40.964Z,71.30
2023-03-29T16:21:46.028Z,71.30
2023-03-29T16:26:48.633Z,71.70
2023-03-29T16:31:51.133Z,72.70
2023-03-29T16:36:54.332Z,73.10
2023-03-29T16:41:56.029Z,75.70
2023-03-29T16:46:58.462Z,77.40
2023-03-29T16:52:00.199Z,78.30
2023-03-29T16:57:01.926Z,80.80
2023-03-29T17:02:03.692Z,80.80
2023-03-29T17:07:05.550Z,82.30
2023-03-29T17:12:07.613Z,82.80
2023-03-29T17:17:09.491Z,84.50
2023-03-29T17:22:11.321Z,84.70
2023-03-29T17:27:13.108Z,86.20
2023-03-29T17:32:14.960Z,88.50
2023-03-29T17:37:17.487Z,89.90
2023-03-29T17:42:19.558Z,88.90
2023-03-29T17:47:21.296Z,89.20
2023-03-29T17:52:23.096Z,90.90
2023-03-29T17:57:24.970Z,91.90
2023-03-29T18:02:26.779Z,92.30
2023-03-29T18:07:29.437Z,92.50
2023-03-29T18:12:31.366Z,92.60
2023-03-29T18:17:35.617Z,92.40
2023-03-29T18:22:39.362Z,92.50
2023-03-29T18:27:41.308Z,93.40
2023-03-29T18:32:43.178Z,93.70
2023-03-29T18:37:44.964Z,93.40
2023-03-29T18:42:46.703Z,91.90
2023-03-29T18:47:50.586Z,94.00
2023-03-29T18:52:52.565Z,94.20
2023-03-29T18:57:54.388Z,94.30
2023-03-29T19:02:56.449Z,95.40
2023-03-29T19:07:58.793Z,94.00
2023-03-29T19:13:00.757Z,96.20
2023-03-29T19:18:02.555Z,95.00
2023-03-29T19:23:04.754Z,98.20
2023-03-29T19:28:06.597Z,97.70
2023-03-29T19:33:08.567Z,97.80
2023-03-29T19:38:10.841Z,96.90
2023-03-29T19:43:16.805Z,97.60
2023-03-29T19:48:23.535Z,98.50
2023-03-29T19:53:27.160Z,98.30
2023-03-29T19:58:29.016Z,97.50
2023-03-29T20:03:34.138Z,96.60
2023-03-29T20:08:38.768Z,96.70
2023-03-29T20:13:45.227Z,97.80
2023-03-29T20:18:46.968Z,97.50
2023-03-29T20:23:48.758Z,97.30
2023-03-29T20:28:50.721Z,97.30
2023-03-29T20:33:52.912Z,97.50
2023-03-29T20:38:56.281Z,97.00
2023-03-29T20:43:58.517Z,98.20
2023-03-29T20:49:01.427Z,98.20
2023-03-29T20:54:05.233Z,99.30
2023-03-29T20:59:10.677Z,98.50
2023-03-29T21:04:12.869Z,98.30
2023-03-29T21:09:14.820Z,97.60
2023-03-29T21:14:21.314Z,97.70
2023-03-29T21:19:24.257Z,97.40
2023-03-29T21:24:26.181Z,97.40
2023-03-29T21:29:28.143Z,96.40
2023-03-29T21:34:29.906Z,96.00
2023-03-29T21:39:32.860Z,95.70
2023-03-29T21:44:34.648Z,95.60
2023-03-29T21:49:36.631Z,94.70
2023-03-29T21:54:38.355Z,95.00
2023-03-29T21:59:40.232Z,94.10
2023-03-29T22:04:41.946Z,93.50
2023-03-29T22:09:43.827Z,93.50
2023-03-29T22:14:45.669Z,93.80
2023-03-29T22:19:47.542Z,93.10
2023-03-29T22:24:52.885Z,92.80
2023-03-29T22:29:54.621Z,92.10
2023-03-29T22:34:56.415Z,91.60
2023-03-29T22:39:58.350Z,91.40
2023-03-29T22:45:00.130Z,90.90
2023-03-29T22:50:01.874Z,90.50
2023-03-29T22:55:03.775Z,90.70
2023-03-29T23:00:09.260Z,90.50
2023-03-29T23:05:11.643Z,91.00
2023-03-29T23:10:13.465Z,90.60
2023-03-29T23:15:17.063Z,90.70
2023-03-29T23:20:21.028Z,90.50
2023-03-29T23:25:22.929Z,89.00
2023-03-29T23:30:25.106Z,90.10
2023-03-29T23:35:26.987Z,90.40
2023-03-29T23:40:28.796Z,90.40
2023-03-29T23:45:30.659Z,91.20
2023-03-29T23:50:32.406Z,92.10
2023-03-29T23:55:34.359Z,92.90
